Time;durP1;ratioP1;P1;durP2;ratioP2;P2;SDS_P1;SDS_P2;PMS_P1;PMS_P2;Temp;Humidity;BMP_temperature;BMP_pressure;BME280_temperature;BME280_humidity;BME280_pressure;Samples;Min_cycle;Max_cycle;Signal;HPM_P1;HPM_P2
2022/02/22 00:00:27;;;;;;;14.05;6.25;;;5.40;95.90;;;;;;4988617;28;20121;-71
2022/02/22 00:02:54;;;;;;;14.35;5.75;;;5.40;96.00;;;;;;4989776;28;20046;-71
2022/02/22 00:05:24;;;;;;;15.80;6.57;;;5.20;96.20;;;;;;4990412;28;20048;-71
2022/02/22 00:07:51;;;;;;;17.15;7.05;;;5.20;96.50;;;;;;4993244;28;20405;-71
2022/02/22 00:10:18;;;;;;;11.95;5.50;;;5.40;96.20;;;;;;4989518;28;22357;-70
2022/02/22 00:12:45;;;;;;;16.95;6.25;;;5.50;95.60;;;;;;4991414;28;20045;-71
2022/02/22 00:15:13;;;;;;;16.02;5.50;;;5.40;95.50;;;;;;5006164;28;20687;-71
2022/02/22 00:17:43;;;;;;;13.00;5.70;;;5.20;95.80;;;;;;5005920;28;20053;-71
2022/02/22 00:20:12;;;;;;;10.25;5.05;;;5.10;96.00;;;;;;4990427;28;20480;-71
2022/02/22 00:22:39;;;;;;;13.45;5.18;;;5.00;96.80;;;;;;5005154;28;20061;-71
2022/02/22 00:25:11;;;;;;;14.07;5.35;;;5.10;97.10;;;;;;4989187;28;20405;-70
2022/02/22 00:27:42;;;;;;;11.07;4.63;;;5.10;97.30;;;;;;4988482;28;20108;-70
2022/02/22 00:30:11;;;;;;;12.02;4.75;;;4.90;96.90;;;;;;4972161;28;20057;-71
2022/02/22 00:32:42;;;;;;;12.05;4.68;;;5.00;96.90;;;;;;4989251;28;20137;-71
2022/02/22 00:35:11;;;;;;;9.20;4.25;;;5.20;96.10;;;;;;4990563;28;20052;-71
2022/02/22 00:37:39;;;;;;;15.73;6.07;;;5.30;95.30;;;;;;4987676;28;20097;-71
2022/02/22 00:40:08;;;;;;;12.32;4.97;;;5.40;94.40;;;;;;4986386;28;20043;-71
2022/02/22 00:42:35;;;;;;;9.80;4.68;;;5.60;94.00;;;;;;4988459;28;20061;-71
2022/02/22 00:45:03;;;;;;;9.18;4.57;;;5.80;93.50;;;;;;5003337;28;20370;-71
2022/02/22 00:47:30;;;;;;;11.68;5.30;;;5.90;92.50;;;;;;4988001;28;20045;-71
2022/02/22 00:49:57;;;;;;;13.02;4.60;;;5.90;92.10;;;;;;4969812;28;20758;-71
2022/02/22 00:52:24;;;;;;;9.63;3.97;;;5.90;92.00;;;;;;4984348;28;20051;-71
2022/02/22 00:54:53;;;;;;;9.80;3.83;;;6.00;91.60;;;;;;5003714;28;20518;-71
2022/02/22 00:57:20;;;;;;;8.95;3.70;;;6.00;91.50;;;;;;4989888;28;20074;-71
2022/02/22 00:59:48;;;;;;;8.65;3.75;;;6.10;91.20;;;;;;4975917;28;20104;-71
2022/02/22 01:02:15;;;;;;;9.32;3.95;;;6.10;91.30;;;;;;4991605;28;20124;-71
2022/02/22 01:04:42;;;;;;;10.25;3.85;;;6.10;91.20;;;;;;4992831;28;20046;-70
2022/02/22 01:07:16;;;;;;;8.93;3.25;;;6.20;90.80;;;;;;4973176;28;20136;-71
2022/02/22 01:09:47;;;;;;;6.93;3.38;;;6.10;90.90;;;;;;4990198;28;20046;-70
2022/02/22 01:12:15;;;;;;;10.05;3.15;;;6.10;91.00;;;;;;4988547;28;20046;-71
2022/02/22 01:14:43;;;;;;;8.43;2.90;;;6.10;91.10;;;;;;4992975;28;20096;-71
2022/02/22 01:17:11;;;;;;;9.80;3.50;;;6.00;91.30;;;;;;5009660;28;20061;-71
2022/02/22 01:19:38;;;;;;;10.20;3.45;;;5.90;91.20;;;;;;5006839;28;20045;-71
2022/02/22 01:22:05;;;;;;;8.40;2.78;;;5.80;91.40;;;;;;4992588;28;20046;-71
2022/02/22 01:24:32;;;;;;;7.88;2.90;;;5.80;91.60;;;;;;4992629;28;20143;-71
2022/02/22 01:27:02;;;;;;;6.63;2.75;;;5.80;91.50;;;;;;4993830;28;20105;-71
2022/02/22 01:29:29;;;;;;;9.20;3.17;;;5.80;91.30;;;;;;4990532;28;20070;-72
2022/02/22 01:31:56;;;;;;;7.10;3.08;;;5.80;91.50;;;;;;5010876;28;20065;-71
2022/02/22 01:34:23;;;;;;;8.02;2.67;;;5.90;91.40;;;;;;4977030;28;20097;-71
2022/02/22 01:36:50;;;;;;;8.68;3.08;;;5.80;91.50;;;;;;4993422;28;20057;-71
2022/02/22 01:39:17;;;;;;;7.80;3.08;;;5.80;91.70;;;;;;4992914;28;20069;-71
2022/02/22 01:41:45;;;;;;;7.45;2.80;;;5.80;91.30;;;;;;4993437;28;20042;-71
2022/02/22 01:44:14;;;;;;;10.10;3.17;;;6.00;91.10;;;;;;4992819;28;20991;-71
2022/02/22 01:46:52;;;;;;;7.80;3.03;;;5.70;91.40;;;;;;4992168;28;20700;-71
2022/02/22 01:49:19;;;;;;;8.25;3.08;;;5.70;91.40;;;;;;4994124;28;20068;-71
2022/02/22 01:51:47;;;;;;;9.07;3.03;;;5.70;91.60;;;;;;4991036;28;20049;-71
2022/02/22 01:54:14;;;;;;;8.55;3.00;;;5.70;91.20;;;;;;5007909;28;20142;-71
2022/02/22 01:56:41;;;;;;;10.02;3.15;;;5.50;91.20;;;;;;4993038;28;20138;-71
2022/02/22 01:59:11;;;;;;;7.55;2.65;;;5.40;91.60;;;;;;4991179;28;20133;-71
2022/02/22 02:01:38;;;;;;;8.93;3.45;;;5.40;91.90;;;;;;4991331;28;20038;-70
2022/02/22 02:04:06;;;;;;;7.00;2.65;;;5.40;92.00;;;;;;4993867;28;20563;-72
2022/02/22 02:06:34;;;;;;;7.25;2.45;;;5.40;91.90;;;;;;4978377;28;20597;-71
2022/02/22 02:09:01;;;;;;;6.07;2.47;;;5.40;91.70;;;;;;5007886;28;20050;-71
2022/02/22 02:11:28;;;;;;;6.40;2.63;;;5.60;91.70;;;;;;5007656;28;20401;-71
2022/02/22 02:13:55;;;;;;;5.15;2.08;;;5.40;91.60;;;;;;5007162;28;20557;-71
2022/02/22 02:16:22;;;;;;;7.57;2.85;;;5.60;91.50;;;;;;4992241;28;20065;-71
2022/02/22 02:18:49;;;;;;;9.70;2.47;;;5.70;91.10;;;;;;4990653;28;20069;-71
2022/02/22 02:21:17;;;;;;;7.43;2.35;;;5.80;91.00;;;;;;4976359;28;20050;-71
2022/02/22 02:23:43;;;;;;;5.35;2.30;;;5.90;90.80;;;;;;5004311;28;20045;-71
2022/02/22 02:26:11;;;;;;;4.32;2.20;;;5.60;91.00;;;;;;4993184;28;20061;-71
2022/02/22 02:28:38;;;;;;;6.80;2.38;;;5.70;91.00;;;;;;4991327;28;20046;-71
2022/02/22 02:31:05;;;;;;;6.40;2.70;;;5.70;91.10;;;;;;4992424;28;20042;-70
2022/02/22 02:33:32;;;;;;;9.48;2.72;;;5.60;91.30;;;;;;4990955;28;20054;-71
2022/02/22 02:35:59;;;;;;;9.95;3.15;;;5.80;90.90;;;;;;4990348;28;20050;-71
2022/02/22 02:38:25;;;;;;;15.90;2.90;;;5.70;90.70;;;;;;4993370;28;20066;-71
2022/02/22 02:40:53;;;;;;;10.25;3.45;;;5.80;90.90;;;;;;4993211;28;20069;-71
2022/02/22 02:43:22;;;;;;;9.50;3.67;;;5.80;90.70;;;;;;4976336;28;20104;-71
2022/02/22 02:45:49;;;;;;;10.68;3.67;;;5.80;90.60;;;;;;4989070;28;20092;-71
2022/02/22 02:48:16;;;;;;;10.38;3.75;;;5.90;90.60;;;;;;5007396;28;20065;-71
2022/02/22 02:50:42;;;;;;;6.82;2.42;;;5.80;90.70;;;;;;4991224;28;20041;-70
2022/02/22 02:53:09;;;;;;;8.00;2.78;;;5.90;90.60;;;;;;4991667;28;20038;-71
2022/02/22 02:55:37;;;;;;;11.43;2.83;;;6.00;90.20;;;;;;4989975;28;20037;-71
2022/02/22 02:58:04;;;;;;;9.15;2.85;;;6.10;89.90;;;;;;4988503;28;20048;-71
2022/02/22 03:00:31;;;;;;;8.35;3.78;;;6.00;90.10;;;;;;4995242;28;20037;-71
2022/02/22 03:02:58;;;;;;;11.25;2.85;;;5.80;90.20;;;;;;4992291;28;21326;-71
2022/02/22 03:05:27;;;;;;;18.63;4.43;;;5.80;90.30;;;;;;4994056;28;20042;-71
2022/02/22 03:07:59;;;;;;;18.35;5.78;;;5.90;90.30;;;;;;4994034;28;20189;-71
2022/02/22 03:10:27;;;;;;;26.88;7.47;;;5.90;90.20;;;;;;5008330;28;20045;-71
2022/02/22 03:12:55;;;;;;;14.43;5.47;;;5.90;90.10;;;;;;4989777;28;20034;-71
2022/02/22 03:15:22;;;;;;;10.95;3.85;;;5.90;90.00;;;;;;4992887;28;20049;-71
2022/02/22 03:17:49;;;;;;;12.60;4.10;;;6.00;89.40;;;;;;4990817;28;20053;-71
2022/02/22 03:20:16;;;;;;;13.27;3.65;;;6.10;88.80;;;;;;4992018;28;20053;-71
2022/02/22 03:22:45;;;;;;;7.25;2.40;;;6.00;89.00;;;;;;4989762;28;20069;-71
2022/02/22 03:25:12;;;;;;;11.20;2.72;;;6.00;89.20;;;;;;4974478;28;20131;-71
2022/02/22 03:27:39;;;;;;;14.02;4.50;;;6.00;89.80;;;;;;4989259;28;20751;-71
2022/02/22 03:30:07;;;;;;;11.63;3.95;;;6.10;89.80;;;;;;4989859;28;20042;-71
2022/02/22 03:32:35;;;;;;;9.60;3.70;;;6.20;89.50;;;;;;4989355;28;20893;-71
2022/02/22 03:35:02;;;;;;;8.23;2.53;;;6.30;88.70;;;;;;4994265;28;20045;-71
2022/02/22 03:37:29;;;;;;;5.85;2.40;;;6.40;88.40;;;;;;4989870;28;20127;-71
2022/02/22 03:39:56;;;;;;;9.73;2.83;;;6.40;87.00;;;;;;4991644;28;20074;-71
2022/02/22 03:42:23;;;;;;;10.07;2.38;;;6.40;87.30;;;;;;4990855;28;20062;-71
2022/02/22 03:44:50;;;;;;;9.65;2.72;;;6.20;86.50;;;;;;4986395;28;20042;-71
2022/02/22 03:47:17;;;;;;;11.40;2.58;;;6.30;87.20;;;;;;4988614;28;20462;-71
2022/02/22 03:49:44;;;;;;;10.68;2.25;;;6.30;86.90;;;;;;4991722;28;20449;-71
2022/02/22 03:52:11;;;;;;;9.07;3.20;;;6.40;87.00;;;;;;4989802;28;20670;-71
2022/02/22 03:54:40;;;;;;;6.22;1.73;;;6.50;86.60;;;;;;5007915;28;20155;-71
2022/02/22 03:57:07;;;;;;;5.75;2.00;;;6.50;86.20;;;;;;5007271;28;20069;-71
2022/02/22 03:59:34;;;;;;;8.70;2.72;;;6.50;86.30;;;;;;4990539;28;20440;-71
2022/02/22 04:02:01;;;;;;;6.28;2.05;;;6.40;87.00;;;;;;4973182;28;22088;-71
2022/02/22 04:04:28;;;;;;;5.82;1.88;;;6.30;87.10;;;;;;4989693;28;20824;-71
2022/02/22 04:06:55;;;;;;;7.35;1.98;;;6.30;87.50;;;;;;4972964;28;20124;-71
2022/02/22 04:09:22;;;;;;;4.72;2.15;;;6.30;87.70;;;;;;4987479;28;20409;-71
2022/02/22 04:11:49;;;;;;;6.95;2.25;;;6.50;87.70;;;;;;4990380;28;20049;-71
2022/02/22 04:14:16;;;;;;;7.55;2.50;;;6.60;87.00;;;;;;5005378;28;20128;-71
2022/02/22 04:16:46;;;;;;;7.82;2.53;;;6.50;87.50;;;;;;4989208;28;20387;-71
2022/02/22 04:19:13;;;;;;;7.40;1.92;;;6.50;87.30;;;;;;4988461;28;20053;-71
2022/02/22 04:21:40;;;;;;;9.05;2.63;;;6.50;87.90;;;;;;4975147;28;20042;-71
2022/02/22 04:24:07;;;;;;;6.78;2.17;;;6.40;88.40;;;;;;4991279;28;20061;-71
2022/02/22 04:26:34;;;;;;;4.88;1.67;;;6.30;89.30;;;;;;4988325;28;20124;-71
2022/02/22 04:29:02;;;;;;;6.57;1.40;;;6.30;89.50;;;;;;4973704;28;20169;-71
2022/02/22 04:31:33;;;;;;;6.70;1.55;;;6.40;89.40;;;;;;5004652;28;20046;-72
2022/02/22 04:34:00;;;;;;;3.92;1.38;;;6.40;89.70;;;;;;5004466;28;20077;-71
2022/02/22 04:36:27;;;;;;;3.00;1.33;;;6.40;89.80;;;;;;4988732;28;20561;-71
2022/02/22 04:38:54;;;;;;;4.25;1.23;;;6.40;90.10;;;;;;4989974;28;20649;-71
2022/02/22 04:41:21;;;;;;;3.60;1.00;;;6.50;90.20;;;;;;4986538;28;20125;-71
2022/02/22 04:43:48;;;;;;;3.17;0.80;;;6.50;90.40;;;;;;4988733;28;20052;-71
2022/02/22 04:46:15;;;;;;;3.00;1.17;;;6.60;90.80;;;;;;4989438;28;20125;-71
2022/02/22 04:48:42;;;;;;;5.13;1.05;;;6.60;90.80;;;;;;4990282;28;20049;-71
2022/02/22 04:51:10;;;;;;;2.15;0.88;;;6.50;91.10;;;;;;4991095;28;20135;-71
2022/02/22 04:53:37;;;;;;;1.95;0.55;;;6.60;91.60;;;;;;4989959;28;20037;-71
2022/02/22 04:56:04;;;;;;;3.17;0.80;;;6.70;91.70;;;;;;5003887;28;20045;-72
2022/02/22 04:58:31;;;;;;;3.28;0.70;;;6.60;91.80;;;;;;4989294;28;20823;-71
2022/02/22 05:00:58;;;;;;;3.28;0.35;;;6.70;92.00;;;;;;4991684;28;20052;-71
2022/02/22 05:03:26;;;;;;;2.45;0.50;;;6.70;92.10;;;;;;4991580;28;20541;-71
2022/02/22 05:05:53;;;;;;;6.18;1.98;;;6.60;92.30;;;;;;5005311;28;20050;-72
2022/02/22 05:08:21;;;;;;;15.27;6.68;;;6.70;92.40;;;;;;4987860;28;20050;-72
2022/02/22 05:10:48;;;;;;;5.57;2.17;;;6.70;92.60;;;;;;4990611;28;22040;-72
2022/02/22 05:13:15;;;;;;;4.63;1.83;;;6.90;92.40;;;;;;4988961;28;20034;-72
2022/02/22 05:15:42;;;;;;;2.58;0.60;;;7.00;92.10;;;;;;4987529;28;20092;-71
2022/02/22 05:18:09;;;;;;;3.63;1.35;;;6.90;92.20;;;;;;4989515;28;20046;-71
2022/02/22 05:20:36;;;;;;;3.13;1.27;;;6.90;92.30;;;;;;4988699;28;20208;-72
2022/02/22 05:23:04;;;;;;;3.15;1.50;;;6.80;92.60;;;;;;4990378;28;20042;-72
2022/02/22 05:25:31;;;;;;;3.08;0.80;;;6.70;92.70;;;;;;4991194;28;20049;-72
2022/02/22 05:27:58;;;;;;;3.05;1.00;;;6.60;93.20;;;;;;4990176;28;20038;-72
2022/02/22 05:30:25;;;;;;;3.33;1.10;;;6.60;93.30;;;;;;4988716;28;20128;-74
2022/02/22 05:32:52;;;;;;;9.27;4.80;;;6.80;93.10;;;;;;4987169;28;20050;-71
2022/02/22 05:35:19;;;;;;;3.75;1.60;;;6.70;92.90;;;;;;5005148;28;20050;-72
2022/02/22 05:37:46;;;;;;;4.30;1.33;;;6.70;93.00;;;;;;4987243;28;20050;-71
2022/02/22 05:40:13;;;;;;;4.38;2.35;;;6.70;93.00;;;;;;5004571;28;20135;-71
2022/02/22 05:42:40;;;;;;;4.68;0.90;;;6.70;92.80;;;;;;4992981;28;20172;-72
2022/02/22 05:45:10;;;;;;;1.88;0.70;;;6.70;92.70;;;;;;4989978;28;20050;-72
2022/02/22 05:47:37;;;;;;;1.83;0.77;;;6.60;92.40;;;;;;4998697;28;20112;-72
2022/02/22 05:50:05;;;;;;;6.47;2.67;;;6.70;92.40;;;;;;4990431;28;20050;-73
2022/02/22 05:52:32;;;;;;;2.28;0.50;;;6.80;92.00;;;;;;5006967;28;20138;-73
2022/02/22 05:54:59;;;;;;;2.00;0.40;;;6.80;91.50;;;;;;4988268;28;20042;-72
2022/02/22 05:57:27;;;;;;;3.05;0.40;;;6.80;91.00;;;;;;4991818;28;20564;-73
2022/02/22 05:59:54;;;;;;;1.58;0.20;;;6.90;91.20;;;;;;4975439;28;20517;-72
2022/02/22 06:02:22;;;;;;;3.00;0.40;;;6.90;90.90;;;;;;4995748;28;20898;-71
2022/02/22 06:04:49;;;;;;;2.17;0.30;;;7.00;90.40;;;;;;4996180;28;20089;-71
2022/02/22 06:07:20;;;;;;;0.95;0.40;;;7.10;90.00;;;;;;4990592;28;22133;-71
2022/02/22 06:09:47;;;;;;;1.25;0.40;;;7.10;89.60;;;;;;4994327;28;20042;-71
2022/02/22 06:12:18;;;;;;;0.82;0.20;;;7.00;89.90;;;;;;4990992;28;20120;-71
2022/02/22 06:14:45;;;;;;;1.02;0.22;;;7.10;88.10;;;;;;4991734;28;20046;-71
2022/02/22 06:17:12;;;;;;;0.80;0.30;;;7.10;88.60;;;;;;4992928;28;20046;-71
2022/02/22 06:19:39;;;;;;;1.00;0.20;;;7.20;88.50;;;;;;4990000;28;20057;-71
2022/02/22 06:22:06;;;;;;;1.33;0.22;;;7.10;88.10;;;;;;4994617;28;20041;-71
2022/02/22 06:24:33;;;;;;;0.38;0.17;;;7.20;87.80;;;;;;4992668;28;20061;-71
2022/02/22 06:27:00;;;;;;;2.08;0.20;;;7.10;88.10;;;;;;4990933;28;20583;-71
2022/02/22 06:29:27;;;;;;;0.52;0.15;;;7.20;86.90;;;;;;4992989;28;20045;-71
2022/02/22 06:31:54;;;;;;;0.45;0.20;;;7.10;87.00;;;;;;4973548;28;20081;-71
2022/02/22 06:34:23;;;;;;;1.15;0.20;;;7.10;86.40;;;;;;4994690;28;20058;-71
2022/02/22 06:36:50;;;;;;;1.73;0.20;;;7.10;86.40;;;;;;4996064;28;20052;-71
2022/02/22 06:39:17;;;;;;;0.93;0.28;;;7.00;86.80;;;;;;5003833;28;20130;-71
2022/02/22 06:41:45;;;;;;;1.65;0.20;;;7.10;86.20;;;;;;4989754;28;20049;-71
2022/02/22 06:44:12;;;;;;;1.13;0.40;;;7.10;86.10;;;;;;4992783;28;20120;-71
2022/02/22 06:46:39;;;;;;;1.15;0.30;;;7.10;85.90;;;;;;4990536;28;20509;-71
2022/02/22 06:49:06;;;;;;;1.45;0.60;;;7.20;85.90;;;;;;5006255;28;20681;-71
2022/02/22 06:51:33;;;;;;;1.42;0.28;;;7.10;86.30;;;;;;4993895;28;20096;-71
2022/02/22 06:54:00;;;;;;;1.88;0.28;;;7.30;86.20;;;;;;4998150;28;20069;-71
2022/02/22 06:56:29;;;;;;;1.48;0.40;;;7.30;85.30;;;;;;4976458;28;21158;-71
2022/02/22 06:58:58;;;;;;;1.88;0.70;;;7.40;85.60;;;;;;4988952;28;20049;-71
2022/02/22 07:01:25;;;;;;;2.50;0.40;;;7.50;85.30;;;;;;4985861;28;20246;-71
2022/02/22 07:03:52;;;;;;;9.63;2.17;;;7.50;84.70;;;;;;4990096;28;20145;-71
2022/02/22 07:06:19;;;;;;;6.07;1.23;;;7.40;84.90;;;;;;4992939;28;20155;-71
2022/02/22 07:08:46;;;;;;;2.00;0.60;;;7.30;85.40;;;;;;4989830;28;20054;-71
2022/02/22 07:11:13;;;;;;;1.15;0.25;;;7.40;84.90;;;;;;4990840;28;20322;-71
2022/02/22 07:13:41;;;;;;;0.93;0.30;;;7.50;85.10;;;;;;4992674;28;20528;-71
2022/02/22 07:16:10;;;;;;;2.15;0.30;;;7.60;84.40;;;;;;4977354;28;20052;-71
2022/02/22 07:18:37;;;;;;;1.15;0.30;;;7.60;83.60;;;;;;4988137;28;20065;-71
2022/02/22 07:21:04;;;;;;;1.08;0.20;;;7.80;83.50;;;;;;5008248;28;20095;-71
2022/02/22 07:23:31;;;;;;;1.58;0.38;;;7.90;82.50;;;;;;4993679;28;20034;-71
2022/02/22 07:25:58;;;;;;;0.93;0.20;;;7.90;81.80;;;;;;4990639;28;20057;-71
2022/02/22 07:28:25;;;;;;;4.10;0.43;;;7.90;82.80;;;;;;4978612;28;20580;-71
2022/02/22 07:30:52;;;;;;;1.20;0.30;;;8.00;82.80;;;;;;4977577;28;20814;-72
2022/02/22 07:33:19;;;;;;;1.60;0.30;;;7.80;81.30;;;;;;4993449;28;20096;-71
2022/02/22 07:35:47;;;;;;;0.55;0.20;;;8.10;80.60;;;;;;4990291;28;20042;-72
2022/02/22 07:38:13;;;;;;;2.13;0.20;;;8.10;79.90;;;;;;4987652;28;20093;-71
2022/02/22 07:40:41;;;;;;;0.43;0.20;;;8.20;78.70;;;;;;4991844;28;20042;-71
2022/02/22 07:43:08;;;;;;;2.35;0.25;;;8.00;80.40;;;;;;4989500;28;23463;-71
2022/02/22 07:45:35;;;;;;;3.00;0.35;;;8.10;80.30;;;;;;4989579;28;20068;-71
2022/02/22 07:48:02;;;;;;;1.45;0.20;;;8.20;80.20;;;;;;4986496;28;20944;-72
2022/02/22 07:50:29;;;;;;;1.70;0.10;;;8.30;79.20;;;;;;4989479;28;20046;-72
2022/02/22 07:52:56;;;;;;;1.75;0.10;;;8.30;77.70;;;;;;4987435;28;20054;-71
2022/02/22 07:55:23;;;;;;;2.53;0.20;;;8.30;78.30;;;;;;4990750;28;20075;-71
2022/02/22 07:57:50;;;;;;;0.40;0.10;;;8.30;77.90;;;;;;5004561;28;20390;-71
2022/02/22 08:00:17;;;;;;;0.40;0.10;;;8.30;77.60;;;;;;4992893;28;20142;-72
2022/02/22 08:02:47;;;;;;;1.33;0.10;;;8.30;76.70;;;;;;4989701;28;20046;-71
2022/02/22 08:05:14;;;;;;;0.40;0.10;;;8.40;76.20;;;;;;4993139;28;20125;-71
2022/02/22 08:07:41;;;;;;;0.68;0.10;;;8.50;76.60;;;;;;4990945;28;20046;-71
2022/02/22 08:10:08;;;;;;;1.70;0.13;;;8.50;76.40;;;;;;4989847;28;20046;-72
2022/02/22 08:12:35;;;;;;;0.60;0.10;;;8.60;76.20;;;;;;4987491;28;20128;-72
2022/02/22 08:15:06;;;;;;;0.65;0.15;;;8.70;76.30;;;;;;4992582;28;20046;-72
2022/02/22 08:17:34;;;;;;;1.60;0.10;;;8.80;74.60;;;;;;4988912;28;20416;-71
2022/02/22 08:20:01;;;;;;;0.50;0.10;;;9.00;74.90;;;;;;4991048;28;20042;-72
2022/02/22 08:22:28;;;;;;;0.50;0.05;;;9.00;74.80;;;;;;4990620;28;20072;-71
2022/02/22 08:24:55;;;;;;;0.22;0.10;;;9.00;74.00;;;;;;4973598;28;20127;-71
2022/02/22 08:27:22;;;;;;;0.10;0.00;;;8.90;72.70;;;;;;4974495;28;20405;-71
2022/02/22 08:29:49;;;;;;;1.15;0.10;;;9.10;74.10;;;;;;4991738;28;20039;-71
2022/02/22 08:32:16;;;;;;;0.63;0.10;;;9.10;73.90;;;;;;4990845;28;20057;-72
2022/02/22 08:34:44;;;;;;;1.05;0.10;;;9.20;73.40;;;;;;4982292;28;20061;-71
2022/02/22 08:37:15;;;;;;;0.43;0.00;;;9.30;72.40;;;;;;4992293;28;20038;-71
2022/02/22 08:39:44;;;;;;;2.13;0.10;;;9.30;72.60;;;;;;4987590;28;20465;-71
2022/02/22 08:42:11;;;;;;;0.43;0.10;;;9.30;71.70;;;;;;4990891;28;20053;-72
2022/02/22 08:44:39;;;;;;;2.45;0.08;;;9.30;71.20;;;;;;4990370;28;20045;-72
2022/02/22 08:47:06;;;;;;;0.63;0.20;;;9.20;70.20;;;;;;4973339;28;20588;-71
2022/02/22 08:49:33;;;;;;;0.95;0.10;;;9.30;71.40;;;;;;4992262;28;20129;-72
2022/02/22 08:52:00;;;;;;;1.73;0.10;;;9.30;70.90;;;;;;4989225;28;20123;-71
2022/02/22 08:54:47;;;;;;;1.48;0.10;;;9.40;71.30;;;;;;4985208;28;20060;-71
2022/02/22 08:57:15;;;;;;;0.73;0.08;;;9.60;71.60;;;;;;4985676;28;20065;-71
2022/02/22 08:59:42;;;;;;;0.88;0.20;;;9.70;70.10;;;;;;4988203;28;20065;-72
2022/02/22 09:02:09;;;;;;;0.57;0.10;;;9.80;69.70;;;;;;4988612;28;20066;-73
2022/02/22 09:04:36;;;;;;;0.40;0.10;;;9.80;68.80;;;;;;4990381;28;20046;-73
2022/02/22 09:07:03;;;;;;;1.13;0.10;;;9.70;69.80;;;;;;4975297;28;20064;-71
2022/02/22 09:09:31;;;;;;;2.42;0.28;;;9.90;70.10;;;;;;5005000;28;21131;-71
2022/02/22 09:11:59;;;;;;;1.15;0.08;;;10.00;68.30;;;;;;4992944;28;20109;-71
2022/02/22 09:14:26;;;;;;;0.50;0.10;;;9.90;68.50;;;;;;4988213;28;20043;-71
2022/02/22 09:16:53;;;;;;;0.88;0.10;;;10.10;68.40;;;;;;4990719;28;20139;-71
2022/02/22 09:19:20;;;;;;;0.80;0.10;;;10.10;67.30;;;;;;4990995;28;20037;-71
2022/02/22 09:21:48;;;;;;;0.38;0.05;;;10.30;68.60;;;;;;4992717;28;20033;-71
2022/02/22 09:24:15;;;;;;;0.22;0.05;;;10.30;67.70;;;;;;4991417;28;20161;-72
2022/02/22 09:26:42;;;;;;;3.83;0.10;;;10.20;66.70;;;;;;4987598;28;20050;-71
2022/02/22 09:29:09;;;;;;;0.47;0.13;;;10.30;67.20;;;;;;4994103;28;20037;-71
2022/02/22 09:31:36;;;;;;;0.30;0.05;;;10.30;67.30;;;;;;5004532;28;20041;-71
2022/02/22 09:34:03;;;;;;;0.43;0.13;;;10.30;66.70;;;;;;4977937;28;20050;-71
2022/02/22 09:36:30;;;;;;;0.65;0.10;;;10.30;65.90;;;;;;4994334;28;20061;-71
2022/02/22 09:38:57;;;;;;;1.67;0.10;;;10.40;65.60;;;;;;4996026;28;20045;-71
2022/02/22 09:41:24;;;;;;;0.10;0.00;;;10.40;66.40;;;;;;4993408;28;20053;-71
2022/02/22 09:43:52;;;;;;;1.20;0.00;;;10.60;66.10;;;;;;4997637;28;20065;-71
2022/02/22 09:46:21;;;;;;;0.93;0.10;;;10.70;66.00;;;;;;4995951;28;22299;-71
2022/02/22 09:48:48;;;;;;;1.25;0.10;;;10.90;65.80;;;;;;4995348;28;20102;-72
2022/02/22 09:51:16;;;;;;;0.90;0.10;;;10.90;64.80;;;;;;5008313;28;20100;-71
2022/02/22 09:53:43;;;;;;;0.30;0.00;;;10.90;63.30;;;;;;4991209;28;20517;-71
2022/02/22 09:56:10;;;;;;;0.63;0.10;;;10.80;64.70;;;;;;4994556;28;20589;-71
2022/02/22 09:58:37;;;;;;;0.52;0.20;;;10.90;63.30;;;;;;4978163;28;20049;-72
2022/02/22 10:01:05;;;;;;;1.30;0.20;;;10.90;64.20;;;;;;4995213;28;20045;-71
2022/02/22 10:03:32;;;;;;;2.45;0.13;;;11.10;64.30;;;;;;4993489;28;20411;-71
2022/02/22 10:06:01;;;;;;;0.95;0.10;;;11.10;63.50;;;;;;4991489;28;20045;-71
2022/02/22 10:08:34;;;;;;;0.20;0.10;;;11.20;61.40;;;;;;4975298;28;20062;-71
2022/02/22 10:11:07;;;;;;;2.08;0.10;;;11.10;62.20;;;;;;5005183;28;20498;-71
2022/02/22 10:13:35;;;;;;;;;;;11.20;62.30;;;;;;4990404;28;20132;-72
2022/02/22 10:16:13;;;;;;;1.95;0.17;;;11.30;63.30;;;;;;4975065;28;20012;-71
2022/02/22 10:18:52;;;;;;;0.93;0.10;;;11.30;62.80;;;;;;4994738;28;20125;-71
2022/02/22 10:21:22;;;;;;;2.28;0.35;;;11.30;62.20;;;;;;4994475;28;20053;-71
2022/02/22 10:23:49;;;;;;;0.85;0.10;;;11.30;62.90;;;;;;4993913;28;20497;-71
2022/02/22 10:26:20;;;;;;;0.20;0.00;;;11.40;61.60;;;;;;5006278;28;20131;-72
2022/02/22 10:28:48;;;;;;;2.83;0.20;;;11.30;60.90;;;;;;4989691;28;20056;-71
2022/02/22 10:31:15;;;;;;;1.67;0.40;;;11.30;62.40;;;;;;5005636;28;20052;-71
2022/02/22 10:33:46;;;;;;;3.35;0.95;;;11.50;61.30;;;;;;5007169;28;20089;-72
2022/02/22 10:36:39;;;;;;;3.58;0.30;;;11.50;60.90;;;;;;4994160;28;20042;-72
2022/02/22 10:39:07;;;;;;;;;;;11.50;61.60;;;;;;4993722;28;20509;-72
2022/02/22 10:41:39;;;;;;;0.60;0.10;;;11.60;61.40;;;;;;5008935;28;20012;-72
2022/02/22 10:44:09;;;;;;;0.30;0.10;;;11.90;60.70;;;;;;4992334;28;20184;-72
2022/02/22 10:46:45;;;;;;;1.00;0.10;;;11.80;59.50;;;;;;4975337;28;20412;-72
2022/02/22 10:49:14;;;;;;;0.50;0.10;;;11.90;60.40;;;;;;4992974;28;20643;-73
2022/02/22 10:51:52;;;;;;;0.75;0.30;;;12.00;59.90;;;;;;4989198;28;20052;-72
2022/02/22 10:54:25;;;;;;;0.60;0.10;;;12.20;58.10;;;;;;4994153;28;20049;-72
2022/02/22 10:56:54;;;;;;;0.73;0.00;;;12.10;56.80;;;;;;4993630;28;20161;-73
2022/02/22 10:59:24;;;;;;;2.33;0.10;;;12.10;57.00;;;;;;4981843;28;20058;-71
2022/02/22 11:01:52;;;;;;;0.40;0.10;;;12.10;57.20;;;;;;5006476;28;20058;-71
2022/02/22 11:04:26;;;;;;;0.43;0.10;;;12.20;55.90;;;;;;4992817;28;20050;-72
2022/02/22 11:06:53;;;;;;;0.80;0.00;;;12.20;55.40;;;;;;5007282;28;20847;-71
2022/02/22 11:09:23;;;;;;;0.32;0.00;;;12.30;55.50;;;;;;4987586;28;20163;-71
2022/02/22 11:12:00;;;;;;;2.40;0.10;;;12.30;55.70;;;;;;5008980;28;20057;-72
2022/02/22 11:14:30;;;;;;;0.90;0.00;;;12.40;56.00;;;;;;4989966;28;22536;-72
2022/02/22 11:17:00;;;;;;;1.02;0.00;;;12.60;56.20;;;;;;4988290;28;20060;-71
2022/02/22 11:19:38;;;;;;;3.13;0.20;;;12.70;55.60;;;;;;4971212;28;20080;-72
2022/02/22 11:22:23;;;;;;;0.65;0.20;;;12.80;56.00;;;;;;4989611;28;20469;-71
2022/02/22 11:24:51;;;;;;;0.17;0.03;;;12.90;57.20;;;;;;4990214;28;20046;-71
2022/02/22 11:27:42;;;;;;;0.65;0.00;;;13.00;57.00;;;;;;5007048;28;20527;-72
2022/02/22 11:30:12;;;;;;;0.25;0.00;;;12.60;55.70;;;;;;4994737;28;20603;-71
2022/02/22 11:33:04;;;;;;;0.60;0.10;;;12.10;56.60;;;;;;4986858;28;20042;-71
2022/02/22 11:35:43;;;;;;;0.80;0.10;;;12.20;56.60;;;;;;4990577;28;20400;-71
2022/02/22 11:38:11;;;;;;;0.20;0.00;;;12.30;56.00;;;;;;4988736;28;20054;-71
2022/02/22 11:40:40;;;;;;;0.30;0.10;;;12.50;56.80;;;;;;4988716;28;20038;-72
2022/02/22 11:43:12;;;;;;;0.75;0.08;;;12.80;56.00;;;;;;4988910;28;20073;-72
2022/02/22 11:45:42;;;;;;;0.43;0.00;;;12.90;55.80;;;;;;5002999;28;20948;-71
2022/02/22 11:48:24;;;;;;;0.70;0.10;;;13.00;54.10;;;;;;4988590;28;20049;-72
2022/02/22 11:50:52;;;;;;;1.38;0.08;;;12.80;53.30;;;;;;4992543;28;20053;-73
2022/02/22 11:53:38;;;;;;;1.35;0.30;;;12.60;54.30;;;;;;4993445;28;20783;-72
2022/02/22 11:56:05;;;;;;;1.35;0.10;;;12.70;55.30;;;;;;4987442;28;20133;-72
2022/02/22 11:58:36;;;;;;;0.20;0.20;;;12.70;54.20;;;;;;4972065;28;20093;-72
2022/02/22 12:01:05;;;;;;;0.10;0.00;;;12.80;53.90;;;;;;4989559;28;20865;-71
2022/02/22 12:03:44;;;;;;;1.45;0.20;;;12.70;53.60;;;;;;5006148;28;20046;-72
2022/02/22 12:06:11;;;;;;;0.38;0.10;;;12.60;53.40;;;;;;4988495;28;20057;-70
2022/02/22 12:08:41;;;;;;;0.50;0.00;;;12.60;52.90;;;;;;4992507;28;20056;-71
2022/02/22 12:11:18;;;;;;;1.02;0.00;;;12.50;53.80;;;;;;4991257;28;20115;-71
2022/02/22 12:13:49;;;;;;;0.45;0.00;;;12.60;54.20;;;;;;5004859;28;20030;-72
2022/02/22 12:16:19;;;;;;;1.33;0.10;;;12.60;53.40;;;;;;4974624;28;20042;-71
2022/02/22 12:18:48;;;;;;;0.95;0.10;;;12.80;54.50;;;;;;4988945;28;20033;-72
2022/02/22 12:21:19;;;;;;;1.30;0.10;;;12.90;53.80;;;;;;4986993;28;20468;-71
2022/02/22 12:23:47;;;;;;;0.90;0.10;;;13.20;52.90;;;;;;4988281;28;20052;-72
2022/02/22 12:26:20;;;;;;;0.40;0.10;;;13.20;53.30;;;;;;4991379;28;20107;-71
2022/02/22 12:28:53;;;;;;;1.58;0.30;;;13.40;53.80;;;;;;4972344;28;20047;-71
2022/02/22 12:31:28;;;;;;;0.80;0.20;;;13.20;53.10;;;;;;4986555;28;20045;-72
2022/02/22 12:34:00;;;;;;;1.15;0.20;;;13.40;53.20;;;;;;4989264;28;20572;-72
2022/02/22 12:36:27;;;;;;;0.43;0.00;;;13.30;52.50;;;;;;4992723;28;20125;-72
2022/02/22 12:39:13;;;;;;;0.32;0.10;;;13.10;53.90;;;;;;4987353;28;20038;-71
2022/02/22 12:41:46;;;;;;;0.15;0.08;;;13.30;54.60;;;;;;4973215;28;20643;-71
2022/02/22 12:44:16;;;;;;;1.40;0.10;;;13.50;54.30;;;;;;4989791;28;20105;-71
2022/02/22 12:46:47;;;;;;;0.40;0.10;;;13.60;52.30;;;;;;5003548;28;20060;-71
2022/02/22 12:49:18;;;;;;;3.40;0.15;;;12.90;54.10;;;;;;4989165;28;22280;-71
2022/02/22 12:51:48;;;;;;;0.65;0.03;;;13.00;54.60;;;;;;4987149;28;20049;-71
2022/02/22 12:54:18;;;;;;;0.60;0.10;;;12.90;54.40;;;;;;5005778;28;20046;-71
2022/02/22 12:56:50;;;;;;;1.65;0.10;;;12.70;55.10;;;;;;4989588;28;22334;-72
2022/02/22 12:59:24;;;;;;;0.63;0.10;;;12.80;55.10;;;;;;5006078;28;20752;-71